createdAt,value
2024-04-13T00:03:58.484Z,2.90
2024-04-13T00:06:29.347Z,6.40
2024-04-13T00:09:00.137Z,4.30
2024-04-13T00:11:31.338Z,3.90
2024-04-13T00:14:01.912Z,4.40
2024-04-13T00:16:33.753Z,6.70
2024-04-13T00:19:05.174Z,5.20
2024-04-13T00:21:36.014Z,4.30
2024-04-13T00:26:36.863Z,4.70
2024-04-13T00:29:08.212Z,6.30
2024-04-13T00:31:38.864Z,4.40
2024-04-13T00:34:09.538Z,5.50
2024-04-13T00:36:41.435Z,5.70
2024-04-13T00:39:12.284Z,6.60
2024-04-13T00:41:42.895Z,5.10
2024-04-13T00:44:13.711Z,4.60
2024-04-13T00:51:49.337Z,5.70
2024-04-13T00:54:24.668Z,3.80
2024-04-13T00:56:55.974Z,5.80
2024-04-13T00:59:28.036Z,5.10
2024-04-13T01:02:01.156Z,4.70
2024-04-13T01:04:33.514Z,5.40
2024-04-13T01:07:04.554Z,4.80
2024-04-13T01:09:37.817Z,5.30
2024-04-13T01:12:10.773Z,6.10
2024-04-13T01:14:42.198Z,6.30
2024-04-13T01:17:13.657Z,3.60
2024-04-13T01:19:44.187Z,6.20
2024-04-13T01:22:15.739Z,4.80
2024-04-13T01:24:46.745Z,5.40
2024-04-13T01:27:19.087Z,5.80
2024-04-13T01:29:51.136Z,5.00
2024-04-13T01:32:21.875Z,3.30
2024-04-13T01:34:52.460Z,4.50
2024-04-13T01:37:23.271Z,5.50
2024-04-13T01:39:53.898Z,5.70
2024-04-13T01:42:24.476Z,4.10
2024-04-13T01:44:55.291Z,5.90
2024-04-13T01:47:26.110Z,5.50
2024-04-13T01:49:57.045Z,4.20
2024-04-13T01:52:28.562Z,5.50
2024-04-13T01:54:59.202Z,4.30
2024-04-13T01:57:30.034Z,4.50
2024-04-13T02:00:00.879Z,6.30
2024-04-13T02:02:34.499Z,5.90
2024-04-13T02:05:05.482Z,6.00
2024-04-13T02:07:37.443Z,4.50
2024-04-13T02:10:11.169Z,4.60
2024-04-13T02:12:41.752Z,3.80
2024-04-13T02:15:12.494Z,4.70
2024-04-13T02:17:44.682Z,3.50
2024-04-13T02:20:17.580Z,4.20
2024-04-13T02:23:08.900Z,6.70
2024-04-13T02:25:40.485Z,4.70
2024-04-13T02:28:11.359Z,6.00
2024-04-13T02:30:42.186Z,6.30
2024-04-13T02:33:13.078Z,6.90
2024-04-13T02:35:43.986Z,4.30
2024-04-13T02:38:15.177Z,3.60
2024-04-13T02:43:14.990Z,4.40
2024-04-13T02:45:46.622Z,2.80
2024-04-13T02:48:17.848Z,5.70
2024-04-13T02:50:48.646Z,3.60
2024-04-13T02:53:19.182Z,5.70
2024-04-13T02:55:49.812Z,4.80
2024-04-13T02:58:20.393Z,5.90
2024-04-13T03:00:57.475Z,3.90
2024-04-13T03:03:28.609Z,3.20
2024-04-13T03:06:03.455Z,3.00
2024-04-13T03:08:34.518Z,5.20
2024-04-13T03:11:05.737Z,3.60
2024-04-13T03:13:38.024Z,4.40
2024-04-13T03:16:10.988Z,4.50
2024-04-13T03:18:43.164Z,3.90
2024-04-13T03:21:14.634Z,4.40
2024-04-13T03:23:45.362Z,3.00
2024-04-13T03:26:16.544Z,4.00
2024-04-13T03:28:48.497Z,5.50
2024-04-13T03:31:19.206Z,4.40
2024-04-13T03:33:49.911Z,3.60
2024-04-13T03:36:20.601Z,2.80
2024-04-13T03:38:56.866Z,4.20
2024-04-13T03:41:27.694Z,3.20
2024-04-13T03:43:58.324Z,4.50
2024-04-13T03:46:29.830Z,4.20
2024-04-13T03:49:01.702Z,5.10
2024-04-13T03:51:32.928Z,4.90
2024-04-13T03:54:04.836Z,4.20
2024-04-13T03:56:35.759Z,3.50
2024-04-13T03:59:06.857Z,5.80
2024-04-13T04:01:37.858Z,5.30
2024-04-13T04:04:08.939Z,4.70
2024-04-13T04:06:39.648Z,5.90
2024-04-13T04:09:11.849Z,7.10
2024-04-13T04:11:44.274Z,3.70
2024-04-13T04:14:14.902Z,3.90
2024-04-13T04:16:46.232Z,3.50
2024-04-13T04:19:16.873Z,3.80
2024-04-13T04:21:47.781Z,4.30
2024-04-13T04:24:18.510Z,4.30
2024-04-13T04:26:49.170Z,4.60
2024-04-13T04:29:19.856Z,3.60
2024-04-13T04:31:50.954Z,4.70
2024-04-13T04:34:21.615Z,4.10
2024-04-13T04:36:52.671Z,4.40
2024-04-13T04:41:53.158Z,5.00
2024-04-13T04:44:23.777Z,3.00
2024-04-13T04:46:54.664Z,6.50
2024-04-13T04:49:25.563Z,3.30
2024-04-13T04:51:56.756Z,3.70
2024-04-13T04:54:27.472Z,8.30
2024-04-13T04:56:58.140Z,6.30
2024-04-13T04:59:28.832Z,3.50
2024-04-13T05:02:00.213Z,4.80
2024-04-13T05:04:31.112Z,4.80
2024-04-13T05:07:01.809Z,6.70
2024-04-13T05:09:32.698Z,3.30
2024-04-13T05:12:03.286Z,2.90
2024-04-13T05:14:34.251Z,4.70
2024-04-13T05:17:05.164Z,5.60
2024-04-13T05:19:39.454Z,4.20
2024-04-13T05:22:10.576Z,7.40
2024-04-13T05:24:41.349Z,5.40
2024-04-13T05:27:12.210Z,5.00
2024-04-13T05:29:43.178Z,3.80
2024-04-13T05:34:43.947Z,4.60
2024-04-13T05:37:14.633Z,4.90
2024-04-13T05:39:45.374Z,3.80
2024-04-13T05:42:16.071Z,5.70
2024-04-13T05:44:46.726Z,4.40
2024-04-13T05:47:17.659Z,3.30
2024-04-13T05:49:48.381Z,5.00
2024-04-13T05:52:19.142Z,4.60
2024-04-13T05:54:49.814Z,3.90
2024-04-13T05:57:20.399Z,5.20
2024-04-13T05:59:51.018Z,3.80
2024-04-13T06:02:27.093Z,5.30
2024-04-13T06:04:57.743Z,3.90
2024-04-13T06:07:28.588Z,9.70
2024-04-13T06:09:59.124Z,3.90
2024-04-13T06:12:29.932Z,5.30
2024-04-13T06:15:01.276Z,5.80
2024-04-13T06:17:32.313Z,5.60
2024-04-13T06:20:03.027Z,6.00
2024-04-13T06:22:34.488Z,4.70
2024-04-13T06:25:10.359Z,6.90
2024-04-13T06:27:41.305Z,6.10
2024-04-13T06:32:41.847Z,6.30
2024-04-13T06:37:41.788Z,4.10
2024-04-13T06:40:13.946Z,5.70
2024-04-13T06:42:44.555Z,5.70
2024-04-13T06:45:15.652Z,5.10
2024-04-13T06:47:46.255Z,6.80
2024-04-13T06:50:17.007Z,6.50
2024-04-13T06:55:17.872Z,5.20
2024-04-13T06:57:48.467Z,5.70
2024-04-13T07:02:49.510Z,7.60
2024-04-13T07:05:20.428Z,6.30
2024-04-13T07:07:50.936Z,3.20
2024-04-13T07:10:21.843Z,3.40
2024-04-13T07:12:52.471Z,3.90
2024-04-13T07:17:52.938Z,5.40
2024-04-13T07:20:23.432Z,4.10
2024-04-13T07:25:23.203Z,3.90
2024-04-13T07:27:53.766Z,6.30
2024-04-13T07:30:24.617Z,5.10
2024-04-13T07:35:24.562Z,4.00
2024-04-13T07:37:56.315Z,5.30
2024-04-13T07:40:27.492Z,5.70
2024-04-13T07:42:58.713Z,5.00
2024-04-13T07:45:29.538Z,4.90
2024-04-13T07:48:00.428Z,4.70
2024-04-13T07:50:31.199Z,3.90
2024-04-13T07:55:31.107Z,3.90
2024-04-13T07:58:01.743Z,4.50
2024-04-13T08:00:32.555Z,5.70
2024-04-13T08:03:03.745Z,6.00
2024-04-13T08:05:34.610Z,6.30
2024-04-13T08:10:38.315Z,6.20
2024-04-13T08:13:08.889Z,6.30
2024-04-13T08:15:42.176Z,4.90
2024-04-13T08:18:13.942Z,7.10
2024-04-13T08:20:46.530Z,5.30
2024-04-13T08:23:17.061Z,5.10
2024-04-13T08:25:47.795Z,5.70
2024-04-13T08:28:18.508Z,6.60
2024-04-13T08:30:49.268Z,4.80
2024-04-13T08:33:20.068Z,13.30
2024-04-13T08:35:59.489Z,8.40
2024-04-13T08:38:30.368Z,5.20
2024-04-13T08:41:05.094Z,7.50
2024-04-13T08:43:35.776Z,6.50
2024-04-13T08:46:08.887Z,6.90
2024-04-13T08:48:41.889Z,10.60
2024-04-13T08:51:13.313Z,5.10
2024-04-13T08:53:48.344Z,6.90
2024-04-13T08:56:21.149Z,6.10
2024-04-13T08:58:55.270Z,4.90
2024-04-13T09:01:27.745Z,10.60
2024-04-13T09:03:59.727Z,9.70
2024-04-13T09:06:31.408Z,7.00
2024-04-13T09:09:09.641Z,5.50
2024-04-13T09:11:41.091Z,6.20
2024-04-13T09:14:13.072Z,7.80
2024-04-13T09:16:46.562Z,6.50
2024-04-13T09:19:17.247Z,8.80
2024-04-13T09:21:48.340Z,9.50
2024-04-13T09:24:19.302Z,6.90
2024-04-13T09:26:50.254Z,8.60
2024-04-13T09:29:29.323Z,8.10
2024-04-13T09:32:00.525Z,14.40
2024-04-13T09:34:31.214Z,8.00
2024-04-13T09:37:09.704Z,8.50
2024-04-13T09:39:42.963Z,9.30
2024-04-13T09:42:14.723Z,6.50
2024-04-13T09:44:45.303Z,8.30
2024-04-13T09:52:15.230Z,7.40
2024-04-13T09:54:48.333Z,7.00
2024-04-13T09:57:19.602Z,9.10
2024-04-13T09:59:50.669Z,7.50
2024-04-13T10:02:21.546Z,10.30
2024-04-13T10:04:52.534Z,7.80
2024-04-13T10:07:26.176Z,7.80
2024-04-13T10:10:01.310Z,8.60
2024-04-13T10:12:38.407Z,8.20
2024-04-13T10:15:11.540Z,5.10
2024-04-13T10:17:45.311Z,7.40
2024-04-13T10:20:17.051Z,6.40
2024-04-13T10:22:56.925Z,6.50
2024-04-13T10:25:32.164Z,8.70
2024-04-13T10:28:10.746Z,8.50
2024-04-13T10:30:51.993Z,6.80
2024-04-13T10:33:24.780Z,6.60
2024-04-13T10:36:02.487Z,7.20
2024-04-13T10:38:35.657Z,8.40
2024-04-13T10:41:06.762Z,7.00
2024-04-13T10:43:37.554Z,7.30
2024-04-13T10:46:09.870Z,8.40
2024-04-13T10:48:45.037Z,7.50
2024-04-13T10:51:15.844Z,7.60
2024-04-13T10:53:46.586Z,7.60
2024-04-13T10:56:17.425Z,7.10
2024-04-13T10:58:51.328Z,8.40
2024-04-13T11:01:21.860Z,5.40
2024-04-13T11:04:02.571Z,6.30
2024-04-13T11:06:34.547Z,5.70
2024-04-13T11:09:06.097Z,6.90
2024-04-13T11:11:37.857Z,9.50
2024-04-13T11:14:10.259Z,4.50
2024-04-13T11:16:43.713Z,5.90
2024-04-13T11:19:17.804Z,4.70
2024-04-13T11:21:50.238Z,4.00
2024-04-13T11:24:21.192Z,6.20
2024-04-13T11:26:52.518Z,7.00
2024-04-13T11:29:23.920Z,5.90
2024-04-13T11:31:56.595Z,5.20
2024-04-13T11:34:27.394Z,5.80
2024-04-13T11:37:04.911Z,4.70
2024-04-13T11:39:37.514Z,6.20
2024-04-13T11:42:09.681Z,6.90
2024-04-13T11:44:41.309Z,6.00
2024-04-13T11:47:12.861Z,5.30
2024-04-13T11:49:44.746Z,5.60
2024-04-13T11:52:18.555Z,4.90
2024-04-13T11:54:50.291Z,4.90
2024-04-13T11:57:21.147Z,6.60
2024-04-13T11:59:51.774Z,4.60
2024-04-13T12:02:23.482Z,5.40
2024-04-13T12:04:53.951Z,6.10
2024-04-13T12:07:24.767Z,6.00
2024-04-13T12:09:55.403Z,4.40
2024-04-13T12:12:26.176Z,5.80
2024-04-13T12:14:56.775Z,5.80
2024-04-13T12:17:27.621Z,4.30
2024-04-13T12:19:58.814Z,3.60
2024-04-13T12:22:29.763Z,5.40
2024-04-13T12:25:00.620Z,4.40
2024-04-13T12:27:32.358Z,6.10
2024-04-13T12:30:04.672Z,5.20
2024-04-13T12:32:35.386Z,2.90
2024-04-13T12:35:08.906Z,4.80
2024-04-13T12:37:39.887Z,3.00
2024-04-13T12:40:12.048Z,3.30
2024-04-13T12:42:42.614Z,5.90
2024-04-13T12:45:13.284Z,4.30
2024-04-13T12:47:44.593Z,5.40
2024-04-13T12:50:15.826Z,4.50
2024-04-13T12:52:51.170Z,5.20
2024-04-13T12:57:52.456Z,3.30
2024-04-13T13:00:23.153Z,6.20
2024-04-13T13:02:53.749Z,4.90
2024-04-13T13:05:25.252Z,5.90
2024-04-13T13:07:55.938Z,4.80
2024-04-13T13:10:26.446Z,5.40
2024-04-13T13:12:57.121Z,3.00
2024-04-13T13:15:27.983Z,3.30
2024-04-13T13:17:58.830Z,4.30
2024-04-13T13:20:29.483Z,5.80
2024-04-13T13:23:00.154Z,3.10
2024-04-13T13:25:31.290Z,2.30
2024-04-13T13:28:01.967Z,2.90
2024-04-13T13:37:19.809Z,5.90
2024-04-13T13:39:50.620Z,3.00
2024-04-13T13:42:21.287Z,4.10
2024-04-13T13:44:52.583Z,3.40
2024-04-13T13:47:23.563Z,5.80
2024-04-13T13:49:54.243Z,5.40
2024-04-13T13:52:24.903Z,3.20
2024-04-13T13:54:55.766Z,4.20
2024-04-13T13:57:26.432Z,3.90
2024-04-13T13:59:57.415Z,4.40
2024-04-13T14:02:28.090Z,3.10
2024-04-13T14:05:01.676Z,4.20
2024-04-13T14:07:35.664Z,3.50
2024-04-13T14:10:07.363Z,3.70
2024-04-13T14:12:38.221Z,6.00
2024-04-13T14:15:09.357Z,5.10
2024-04-13T14:17:40.358Z,3.60
2024-04-13T14:20:12.598Z,2.20
2024-04-13T14:22:43.274Z,5.10
2024-04-13T14:25:13.865Z,4.50
2024-04-13T14:28:02.251Z,3.70
2024-04-13T14:30:33.394Z,2.20
2024-04-13T14:33:04.177Z,4.50
2024-04-13T14:35:34.911Z,2.00
2024-04-13T14:38:08.361Z,4.20
2024-04-13T14:40:38.964Z,3.30
2024-04-13T14:43:09.589Z,3.10
2024-04-13T14:45:40.562Z,3.50
2024-04-13T14:48:12.012Z,3.90
2024-04-13T14:50:42.677Z,4.00
2024-04-13T14:53:13.250Z,3.50
2024-04-13T14:55:45.141Z,3.30
2024-04-13T14:58:15.806Z,3.10
2024-04-13T15:00:47.089Z,2.60
2024-04-13T15:03:20.107Z,3.10
2024-04-13T15:05:50.709Z,2.30
2024-04-13T15:08:21.478Z,3.70
2024-04-13T15:10:52.448Z,4.50
2024-04-13T15:13:22.945Z,4.50
2024-04-13T15:15:53.683Z,4.20
2024-04-13T15:18:24.676Z,2.90
2024-04-13T15:20:59.442Z,6.60
2024-04-13T15:23:31.479Z,4.80
2024-04-13T15:26:02.014Z,1.90
2024-04-13T15:28:34.212Z,3.80
2024-04-13T15:31:06.950Z,4.70
2024-04-13T15:33:37.631Z,2.80
2024-04-13T15:36:09.690Z,3.00
2024-04-13T15:38:40.495Z,3.40
2024-04-13T15:41:11.175Z,2.10
2024-04-13T15:43:42.103Z,3.90
2024-04-13T15:46:12.760Z,3.50
2024-04-13T15:48:43.538Z,4.10
2024-04-13T15:51:14.177Z,3.50
2024-04-13T15:53:44.777Z,3.90
2024-04-13T15:56:15.602Z,2.20
2024-04-13T15:58:46.427Z,2.60
2024-04-13T16:01:17.247Z,2.50
2024-04-13T16:03:47.966Z,3.20
2024-04-13T16:06:18.604Z,4.10
2024-04-13T16:08:49.330Z,3.50
2024-04-13T16:11:20.107Z,2.60
2024-04-13T16:13:50.904Z,2.70
2024-04-13T16:16:26.749Z,2.10
2024-04-13T16:19:01.163Z,2.20
2024-04-13T16:21:32.511Z,3.40
2024-04-13T16:24:03.652Z,2.90
2024-04-13T16:26:34.364Z,3.50
2024-04-13T16:29:04.886Z,3.60
2024-04-13T16:31:35.543Z,18.90
2024-04-13T16:34:06.246Z,8.40
2024-04-13T16:36:36.944Z,6.90
2024-04-13T16:39:07.856Z,4.00
2024-04-13T16:41:38.495Z,4.20
2024-04-13T16:44:12.004Z,3.50
2024-04-13T16:46:42.788Z,4.90
2024-04-13T16:49:13.337Z,5.30
2024-04-13T16:51:43.977Z,7.70
2024-04-13T16:54:14.599Z,4.00
2024-04-13T16:56:45.300Z,3.70
2024-04-13T16:59:15.847Z,3.00
2024-04-13T17:01:46.428Z,2.10
2024-04-13T17:04:17.720Z,5.90
2024-04-13T17:06:48.599Z,2.80
2024-04-13T17:09:21.340Z,2.80
2024-04-13T17:11:51.892Z,2.60
2024-04-13T17:14:22.450Z,4.60
2024-04-13T17:16:52.999Z,2.80
2024-04-13T17:19:23.954Z,3.00
2024-04-13T17:21:54.786Z,2.30
2024-04-13T17:24:25.775Z,3.30
2024-04-13T17:26:56.390Z,6.00
2024-04-13T17:29:27.073Z,5.00
2024-04-13T17:31:57.807Z,4.30
2024-04-13T17:34:29.066Z,5.80
2024-04-13T17:36:59.865Z,3.60
2024-04-13T17:39:30.656Z,3.00
2024-04-13T17:42:01.381Z,4.70
2024-04-13T17:44:32.636Z,3.90
2024-04-13T17:47:03.298Z,2.80
2024-04-13T17:49:34.624Z,3.30
2024-04-13T17:52:05.428Z,5.90
2024-04-13T17:54:36.268Z,6.80
2024-04-13T17:57:07.466Z,7.00
2024-04-13T17:59:39.075Z,4.90
2024-04-13T18:02:09.609Z,3.60
2024-04-13T18:04:40.790Z,4.40
2024-04-13T18:07:11.309Z,6.20
2024-04-13T18:09:42.329Z,6.50
2024-04-13T18:12:12.985Z,5.70
2024-04-13T18:14:43.631Z,9.70
2024-04-13T18:17:14.271Z,12.60
2024-04-13T18:22:13.966Z,8.10
2024-04-13T18:27:14.773Z,6.90
2024-04-13T18:29:45.965Z,8.90
2024-04-13T18:32:16.815Z,8.00
2024-04-13T18:34:47.830Z,7.70
2024-04-13T18:37:18.440Z,12.00
2024-04-13T18:42:19.841Z,16.50
2024-04-13T18:44:50.434Z,12.90
2024-04-13T18:47:21.070Z,10.30
2024-04-13T18:49:55.424Z,7.30
2024-04-13T18:52:25.964Z,8.80
2024-04-13T18:54:57.230Z,8.90
2024-04-13T18:57:27.879Z,9.40
2024-04-13T19:02:27.544Z,7.70
2024-04-13T19:04:58.313Z,15.90
2024-04-13T19:07:29.005Z,25.90
2024-04-13T19:09:59.927Z,24.70
2024-04-13T19:12:30.866Z,29.00
2024-04-13T19:15:03.158Z,29.20
2024-04-13T19:17:35.357Z,27.70
2024-04-13T19:20:06.944Z,23.30
2024-04-13T19:22:37.908Z,13.00
2024-04-13T19:25:09.034Z,14.10
2024-04-13T19:27:39.818Z,10.40
2024-04-13T19:32:41.939Z,10.00
2024-04-13T19:37:41.670Z,7.80
2024-04-13T19:42:42.264Z,11.30
2024-04-13T19:47:42.075Z,11.10
2024-04-13T19:50:17.179Z,8.60
2024-04-13T19:52:48.203Z,10.50
2024-04-13T19:55:18.929Z,9.30
2024-04-13T19:57:50.286Z,9.10
2024-04-13T20:00:21.207Z,8.00
2024-04-13T20:07:50.864Z,11.80
2024-04-13T20:10:21.566Z,7.00
2024-04-13T20:12:52.193Z,10.20
2024-04-13T20:15:40.575Z,9.80
2024-04-13T20:18:29.350Z,12.00
2024-04-13T20:21:00.529Z,11.10
2024-04-13T20:23:32.499Z,11.30
2024-04-13T20:26:03.702Z,6.90
2024-04-13T20:28:34.527Z,8.50
2024-04-13T20:33:35.265Z,8.20
2024-04-13T20:36:06.296Z,9.20
2024-04-13T20:38:37.709Z,8.80
2024-04-13T20:41:08.864Z,8.50
2024-04-13T20:43:40.978Z,11.20
2024-04-13T20:46:11.873Z,10.10
2024-04-13T20:48:42.766Z,9.10
2024-04-13T20:51:13.696Z,7.80
2024-04-13T20:53:44.304Z,9.60
2024-04-13T20:56:14.811Z,8.10
2024-04-13T20:58:45.405Z,10.30
2024-04-13T21:01:16.360Z,9.50
2024-04-13T21:03:47.117Z,8.40
2024-04-13T21:06:17.957Z,10.40
2024-04-13T21:08:48.764Z,11.20
2024-04-13T21:11:19.329Z,10.00
2024-04-13T21:13:50.368Z,10.00
2024-04-13T21:16:21.049Z,8.40
2024-04-13T21:21:21.055Z,7.90
2024-04-13T21:23:51.678Z,8.30
2024-04-13T21:26:22.564Z,9.40
2024-04-13T21:31:22.505Z,9.90
2024-04-13T21:33:53.172Z,11.90
2024-04-13T21:38:53.775Z,7.90
2024-04-13T21:41:24.466Z,9.40
2024-04-13T21:43:55.979Z,8.10
2024-04-13T21:46:26.725Z,7.90
2024-04-13T21:48:57.650Z,9.10
2024-04-13T21:51:28.197Z,9.50
2024-04-13T21:53:59.186Z,9.10
2024-04-13T21:56:29.880Z,9.40
2024-04-13T21:59:00.820Z,10.00
2024-04-13T22:04:01.823Z,7.30
2024-04-13T22:06:32.411Z,8.90
2024-04-13T22:09:05.306Z,8.00
2024-04-13T22:11:35.903Z,10.10
2024-04-13T22:14:06.456Z,11.70
2024-04-13T22:16:37.179Z,13.00
2024-04-13T22:19:07.949Z,10.00
2024-04-13T22:21:38.754Z,10.40
2024-04-13T22:24:10.484Z,9.80
2024-04-13T22:26:41.263Z,9.10
2024-04-13T22:29:11.870Z,13.90
2024-04-13T22:31:42.508Z,10.30
2024-04-13T22:36:43.828Z,9.10
2024-04-13T22:39:17.175Z,10.60
2024-04-13T22:41:48.762Z,8.80
2024-04-13T22:46:48.609Z,11.10
2024-04-13T22:49:19.236Z,10.60
2024-04-13T22:51:50.126Z,9.90
2024-04-13T22:54:20.956Z,10.50
2024-04-13T22:56:51.535Z,10.20
2024-04-13T22:59:22.093Z,9.00
2024-04-13T23:01:53.278Z,9.80
2024-04-13T23:04:24.206Z,10.40
2024-04-13T23:06:54.876Z,9.70
2024-04-13T23:09:25.975Z,13.30
2024-04-13T23:14:25.908Z,9.00
2024-04-13T23:16:56.389Z,10.00
2024-04-13T23:19:27.167Z,9.60
2024-04-13T23:21:57.868Z,13.00
2024-04-13T23:24:28.609Z,13.10
2024-04-13T23:26:59.236Z,11.90
2024-04-13T23:29:29.706Z,9.10
2024-04-13T23:32:00.448Z,9.80
2024-04-13T23:34:32.279Z,11.50
2024-04-13T23:37:02.859Z,12.00
2024-04-13T23:42:03.083Z,10.30
2024-04-13T23:44:34.235Z,10.10
2024-04-13T23:47:05.317Z,12.40
2024-04-13T23:52:05.957Z,12.50
2024-04-13T23:54:36.602Z,10.40
2024-04-13T23:57:07.718Z,10.20
2024-04-13T23:59:38.287Z,10.50
